Time;durP1;ratioP1;P1;durP2;ratioP2;P2;SDS_P1;SDS_P2;PMS_P1;PMS_P2;Temp;Humidity;BMP_temperature;BMP_pressure;BME280_temperature;BME280_humidity;BME280_pressure;Samples;Min_cycle;Max_cycle;Signal;HPM_P1;HPM_P2
2022/03/11 00:02:05;;;;;;;30.85;12.37;;;;;;;-1.31;74.35;101320.09;1942049;73;21101;-64
2022/03/11 00:04:34;;;;;;;32.90;13.13;;;;;;;-1.31;74.31;101313.23;1941195;74;21078;-60
2022/03/11 00:07:03;;;;;;;30.30;12.50;;;;;;;-1.32;74.33;101310.19;1941902;74;21100;-61
2022/03/11 00:09:32;;;;;;;23.70;11.40;;;;;;;-1.36;74.50;101307.97;1941751;74;21093;-61
2022/03/11 00:12:02;;;;;;;32.42;13.28;;;;;;;-1.34;74.58;101311.02;1941600;73;21071;-61
2022/03/11 00:14:31;;;;;;;32.70;14.20;;;;;;;-1.33;74.46;101307.56;1941813;74;21097;-62
2022/03/11 00:17:00;;;;;;;34.13;13.98;;;;;;;-1.31;74.46;101312.34;1941720;74;21047;-61
2022/03/11 00:19:29;;;;;;;31.17;11.20;;;;;;;-1.31;74.42;101306.78;1941744;74;21046;-62
2022/03/11 00:21:57;;;;;;;28.05;13.10;;;;;;;-1.30;74.39;101307.20;1941666;74;21030;-59
2022/03/11 00:24:26;;;;;;;31.02;12.07;;;;;;;-1.31;74.34;101309.36;1954833;73;20992;-59
2022/03/11 00:26:55;;;;;;;24.92;11.45;;;;;;;-1.35;74.51;101310.12;1962313;73;21056;-59
2022/03/11 00:29:24;;;;;;;22.27;10.32;;;;;;;-1.37;74.61;101310.52;1962244;73;21143;-59
2022/03/11 00:31:52;;;;;;;27.77;12.78;;;;;;;-1.33;74.48;101316.18;1962444;73;21072;-59
2022/03/11 00:34:21;;;;;;;27.73;10.90;;;;;;;-1.33;74.39;101312.73;1962207;73;21032;-58
2022/03/11 00:36:50;;;;;;;32.78;13.58;;;;;;;-1.37;74.43;101309.22;1955247;73;21098;-61
2022/03/11 00:39:20;;;;;;;29.75;12.63;;;;;;;-1.37;74.40;101304.05;1923705;74;21525;-63
2022/03/11 00:41:48;;;;;;;28.90;12.93;;;;;;;-1.39;74.62;101307.03;1919133;75;21552;-62
2022/03/11 00:44:17;;;;;;;33.38;14.58;;;;;;;-1.40;74.71;101300.14;1931539;73;21012;-63
2022/03/11 00:46:46;;;;;;;24.65;11.33;;;;;;;-1.44;74.77;101300.91;1951548;73;21028;-61
2022/03/11 00:49:14;;;;;;;29.32;12.40;;;;;;;-1.45;74.82;101300.47;1951434;73;21499;-60
2022/03/11 00:51:43;;;;;;;35.90;13.45;;;;;;;-1.47;74.98;101299.14;1951736;73;21028;-60
2022/03/11 00:54:12;;;;;;;32.53;13.45;;;;;;;-1.47;75.01;101296.56;1951553;73;21048;-61
2022/03/11 00:56:40;;;;;;;33.20;12.23;;;;;;;-1.49;75.09;101294.80;1951581;73;21036;-60
2022/03/11 00:59:09;;;;;;;27.93;12.73;;;;;;;-1.54;75.10;101289.53;1948962;73;21122;-60
2022/03/11 01:01:38;;;;;;;26.82;11.78;;;;;;;-1.53;75.17;101290.39;1934322;73;21014;-61
2022/03/11 01:04:06;;;;;;;35.33;14.33;;;;;;;-1.48;75.11;101283.61;1932664;73;21106;-62
2022/03/11 01:06:35;;;;;;;32.55;12.98;;;;;;;-1.48;75.13;101275.86;1925980;73;21085;-62
2022/03/11 01:09:04;;;;;;;35.15;12.90;;;;;;;-1.57;75.10;101270.98;1930808;73;21122;-62
2022/03/11 01:11:33;;;;;;;29.48;12.58;;;;;;;-1.62;75.25;101273.03;1930691;73;21004;-62
2022/03/11 01:14:02;;;;;;;34.78;15.13;;;;;;;-1.64;75.42;101272.10;1932188;73;21450;-61
2022/03/11 01:16:31;;;;;;;34.55;15.53;;;;;;;-1.63;75.42;101272.14;1934366;73;21119;-64
2022/03/11 01:19:00;;;;;;;31.55;14.10;;;;;;;-1.56;75.28;101280.45;1933393;73;21349;-60
2022/03/11 01:21:29;;;;;;;33.10;14.98;;;;;;;-1.54;75.22;101275.76;1930551;73;21001;-59
2022/03/11 01:23:57;;;;;;;30.60;13.80;;;;;;;-1.47;74.98;101281.49;1942224;73;21093;-58
2022/03/11 01:26:26;;;;;;;25.23;11.68;;;;;;;-1.44;74.69;101278.55;1934475;73;21101;-60
2022/03/11 01:28:54;;;;;;;30.92;13.13;;;;;;;-1.40;74.57;101285.94;1942568;73;21145;-61
2022/03/11 01:31:23;;;;;;;33.30;13.65;;;;;;;-1.38;74.49;101284.25;1933153;73;21067;-61
2022/03/11 01:33:52;;;;;;;31.10;12.93;;;;;;;-1.40;74.49;101267.85;1936549;73;21231;-60
2022/03/11 01:36:21;;;;;;;19.85;8.53;;;;;;;-1.43;74.59;101270.37;1932233;73;21109;-59
2022/03/11 01:38:50;;;;;;;29.82;13.03;;;;;;;-1.41;74.61;101272.55;1927649;73;21117;-59
2022/03/11 01:41:19;;;;;;;23.05;9.85;;;;;;;-1.48;74.74;101275.86;1934976;73;21021;-60
2022/03/11 01:44:02;;;;;;;25.35;11.33;;;;;;;-1.46;74.70;101281.92;1941609;73;21044;-59
2022/03/11 01:46:31;;;;;;;25.55;12.63;;;;;;;-1.56;74.87;101277.02;1944145;73;21101;-60
2022/03/11 01:49:02;;;;;;;19.30;9.98;;;;;;;-1.58;74.96;101282.14;1939416;74;21467;-59
2022/03/11 01:51:33;;;;;;;28.95;13.10;;;;;;;-1.54;74.88;101288.67;1939455;74;21106;-58
2022/03/11 01:54:02;;;;;;;24.70;13.00;;;;;;;-1.61;75.09;101289.82;1939441;73;21552;-58
2022/03/11 01:56:50;;;;;;;30.52;13.48;;;;;;;-1.61;75.21;101291.11;1900042;75;21089;-59
2022/03/11 01:59:18;;;;;;;26.95;12.63;;;;;;;-1.58;75.13;101288.59;1921915;75;21033;-60
2022/03/11 02:01:47;;;;;;;28.30;11.03;;;;;;;-1.56;75.09;101292.08;1921889;75;21147;-59
2022/03/11 02:04:16;;;;;;;27.22;12.50;;;;;;;-1.56;75.13;101295.95;1921819;75;21096;-60
2022/03/11 02:06:46;;;;;;;25.45;11.93;;;;;;;-1.56;75.08;101293.38;1942348;72;21057;-59
2022/03/11 02:09:15;;;;;;;22.98;11.43;;;;;;;-1.56;75.07;101283.04;1955776;73;21128;-60
2022/03/11 02:11:45;;;;;;;24.10;10.60;;;;;;;-1.58;75.14;101283.44;1955806;72;21091;-60
2022/03/11 02:14:14;;;;;;;24.32;11.30;;;;;;;-1.53;75.00;101280.06;1955774;73;21095;-59
2022/03/11 02:16:43;;;;;;;24.98;9.50;;;;;;;-1.47;74.78;101277.62;1955651;73;21529;-60
2022/03/11 02:19:11;;;;;;;31.68;14.13;;;;;;;-1.49;74.74;101272.84;1955767;73;21025;-59
2022/03/11 02:21:45;;;;;;;26.50;11.38;;;;;;;-1.57;74.94;101273.97;1931668;73;21021;-59
2022/03/11 02:24:16;;;;;;;23.75;10.68;;;;;;;-1.61;75.07;101273.03;1921702;75;21107;-59
2022/03/11 02:26:45;;;;;;;26.20;12.45;;;;;;;-1.57;75.12;101281.31;1922047;75;21142;-59
2022/03/11 02:29:14;;;;;;;26.15;11.80;;;;;;;-1.52;75.14;101276.66;1921749;73;21041;-59
2022/03/11 02:31:44;;;;;;;26.48;11.83;;;;;;;-1.51;75.12;101270.63;1924106;73;21456;-59
2022/03/11 02:34:13;;;;;;;24.35;10.45;;;;;;;-1.48;74.89;101267.69;1921854;75;21123;-61
2022/03/11 02:36:41;;;;;;;26.33;11.33;;;;;;;-1.45;74.67;101260.00;1921842;74;21128;-60
2022/03/11 02:39:11;;;;;;;23.35;11.55;;;;;;;-1.46;74.62;101254.80;1921958;75;21507;-60
2022/03/11 02:41:42;;;;;;;28.15;12.63;;;;;;;-1.49;74.69;101259.50;1921805;75;21095;-61
2022/03/11 02:44:10;;;;;;;26.95;11.33;;;;;;;-1.52;74.75;101254.70;1922726;73;21123;-61
2022/03/11 02:46:39;;;;;;;27.02;11.33;;;;;;;-1.53;74.79;101258.11;1955847;73;21026;-60
2022/03/11 02:49:08;;;;;;;27.10;12.10;;;;;;;-1.57;74.88;101261.95;1955745;73;21091;-61
2022/03/11 02:51:36;;;;;;;23.27;10.98;;;;;;;-1.57;75.00;101261.95;1955847;73;21021;-60
2022/03/11 02:54:05;;;;;;;24.60;10.70;;;;;;;-1.54;75.05;101256.39;1955741;73;21015;-60
2022/03/11 02:56:34;;;;;;;25.25;12.65;;;;;;;-1.59;75.02;101249.39;1953286;72;21113;-60
2022/03/11 02:59:02;;;;;;;23.27;10.78;;;;;;;-1.62;75.04;101246.78;1955724;73;21006;-60
2022/03/11 03:01:32;;;;;;;28.60;11.93;;;;;;;-1.58;74.85;101249.86;1955839;73;21025;-60
2022/03/11 03:04:00;;;;;;;21.85;10.25;;;;;;;-1.58;74.81;101248.57;1956081;73;21467;-60
2022/03/11 03:06:30;;;;;;;26.20;13.13;;;;;;;-1.61;74.90;101244.63;1955857;73;21120;-60
2022/03/11 03:08:58;;;;;;;27.70;12.45;;;;;;;-1.64;75.05;101249.75;1955769;73;21029;-60
2022/03/11 03:11:27;;;;;;;31.48;12.47;;;;;;;-1.60;75.02;101247.67;1924452;73;21021;-60
2022/03/11 03:13:56;;;;;;;23.60;10.53;;;;;;;-1.60;75.04;101240.36;1921995;75;21056;-62
2022/03/11 03:16:24;;;;;;;21.37;11.15;;;;;;;-1.58;74.99;101239.53;1921980;75;21033;-62
2022/03/11 03:18:53;;;;;;;32.23;13.28;;;;;;;-1.59;74.95;101236.48;1921995;75;21106;-64
2022/03/11 03:21:22;;;;;;;27.80;10.75;;;;;;;-1.58;75.00;101225.76;1924098;73;21091;-62
2022/03/11 03:23:51;;;;;;;25.88;12.07;;;;;;;-1.58;75.06;101230.49;1921974;75;21037;-63
2022/03/11 03:26:20;;;;;;;26.27;11.78;;;;;;;-1.57;74.91;101233.54;1921943;75;21482;-60
2022/03/11 03:28:49;;;;;;;25.62;11.70;;;;;;;-1.58;74.93;101234.37;1921950;75;21033;-61
2022/03/11 03:31:24;;;;;;;26.65;11.73;;;;;;;-1.59;74.93;101233.91;1921956;75;21045;-62
2022/03/11 03:33:53;;;;;;;22.35;8.55;;;;;;;-1.62;74.95;101233.87;1925751;73;21168;-61
2022/03/11 03:36:22;;;;;;;34.10;14.18;;;;;;;-1.59;74.86;101237.78;1955960;73;21002;-61
2022/03/11 03:38:50;;;;;;;22.82;9.70;;;;;;;-1.59;74.68;101232.61;1955874;73;21131;-60
2022/03/11 03:41:19;;;;;;;26.40;12.65;;;;;;;-1.60;74.56;101232.18;1955825;73;21045;-60
2022/03/11 03:43:48;;;;;;;27.85;12.05;;;;;;;-1.61;74.54;101226.55;1955967;73;21045;-61
2022/03/11 03:46:17;;;;;;;20.08;10.08;;;;;;;-1.60;74.57;101229.59;1953286;73;21001;-61
2022/03/11 03:48:45;;;;;;;31.50;13.72;;;;;;;-1.62;74.57;101226.55;1955776;73;21432;-60
2022/03/11 03:51:14;;;;;;;28.50;11.45;;;;;;;-1.65;74.72;101224.76;1955830;73;21054;-61
2022/03/11 03:53:42;;;;;;;29.65;12.85;;;;;;;-1.67;74.96;101220.42;1955861;73;21120;-61
2022/03/11 03:56:11;;;;;;;28.47;11.97;;;;;;;-1.69;75.15;101218.23;1955780;73;21104;-61
2022/03/11 03:58:40;;;;;;;28.73;12.78;;;;;;;-1.68;75.25;101223.40;1955804;73;21103;-60
2022/03/11 04:01:08;;;;;;;27.98;11.85;;;;;;;-1.67;75.30;101226.45;1955518;73;21013;-60
2022/03/11 04:03:37;;;;;;;24.57;10.70;;;;;;;-1.68;75.33;101219.95;1955910;73;21041;-61
2022/03/11 04:06:05;;;;;;;27.67;12.90;;;;;;;-1.67;75.24;101222.58;1950884;73;21136;-61
2022/03/11 04:08:34;;;;;;;28.42;11.93;;;;;;;-1.65;75.18;101214.86;1921929;75;21037;-60
2022/03/11 04:11:03;;;;;;;23.10;11.35;;;;;;;-1.66;75.11;101223.04;1921869;75;21076;-61
2022/03/11 04:13:32;;;;;;;22.10;9.70;;;;;;;-1.62;74.90;101221.38;1921804;75;21156;-59
2022/03/11 04:16:00;;;;;;;26.68;11.65;;;;;;;-1.59;74.74;101224.86;1921919;75;21029;-60
2022/03/11 04:18:29;;;;;;;17.57;8.88;;;;;;;-1.56;74.61;101226.66;1924106;73;21053;-60
2022/03/11 04:20:58;;;;;;;24.80;10.75;;;;;;;-1.54;74.60;101227.98;1922057;75;21091;-60
2022/03/11 04:23:26;;;;;;;26.82;11.57;;;;;;;-1.53;74.51;101225.83;1922018;75;21156;-60
2022/03/11 04:25:55;;;;;;;22.42;10.32;;;;;;;-1.51;74.48;101230.59;1921847;75;21084;-60
2022/03/11 04:28:24;;;;;;;24.05;9.78;;;;;;;-1.54;74.53;101228.84;1921894;75;21026;-60
2022/03/11 04:30:52;;;;;;;26.95;11.85;;;;;;;-1.54;74.60;101226.69;1922103;73;21115;-60
2022/03/11 04:33:22;;;;;;;23.07;11.03;;;;;;;-1.60;74.57;101224.44;1921905;75;20998;-60
2022/03/11 04:35:50;;;;;;;20.43;10.20;;;;;;;-1.62;74.62;101233.87;1922094;75;21507;-60
2022/03/11 04:38:19;;;;;;;27.05;11.38;;;;;;;-1.64;74.53;101234.27;1921906;75;21033;-62
2022/03/11 04:40:47;;;;;;;27.65;11.80;;;;;;;-1.59;74.52;101232.61;1921894;75;21104;-59
2022/03/11 04:43:16;;;;;;;27.35;13.08;;;;;;;-1.53;74.46;101234.47;1924160;73;21201;-60
2022/03/11 04:45:45;;;;;;;25.85;11.73;;;;;;;-1.55;74.49;101233.54;1921919;75;20994;-60
2022/03/11 04:48:14;;;;;;;29.52;12.07;;;;;;;-1.53;74.58;101229.70;1921899;74;21045;-61
2022/03/11 04:50:42;;;;;;;22.77;9.85;;;;;;;-1.56;74.74;101223.64;1921931;75;21037;-60
2022/03/11 04:53:11;;;;;;;26.65;10.93;;;;;;;-1.46;74.54;101227.68;1921807;75;21021;-61
2022/03/11 04:55:40;;;;;;;19.70;9.53;;;;;;;-1.46;74.54;101227.68;1921918;75;21421;-61
2022/03/11 04:58:09;;;;;;;22.30;10.00;;;;;;;-1.44;74.52;101228.58;1926672;73;21041;-61
2022/03/11 05:00:37;;;;;;;22.98;9.98;;;;;;;-1.42;74.49;101229.47;1925792;74;21045;-61
2022/03/11 05:03:07;;;;;;;23.57;10.75;;;;;;;-1.42;74.50;101225.59;1925820;74;21052;-60
2022/03/11 05:05:35;;;;;;;18.50;8.73;;;;;;;-1.40;74.51;101223.94;1925659;74;21033;-61
2022/03/11 05:08:05;;;;;;;23.62;10.50;;;;;;;-1.41;74.50;101228.21;1928083;73;21033;-62
2022/03/11 05:10:33;;;;;;;24.35;10.20;;;;;;;-1.42;74.43;101224.30;1925900;74;21005;-62
2022/03/11 05:13:02;;;;;;;18.62;8.88;;;;;;;-1.39;74.28;101226.95;1925748;73;21060;-61
2022/03/11 05:15:31;;;;;;;22.00;9.15;;;;;;;-1.38;74.14;101228.70;1925735;73;21503;-62
2022/03/11 05:17:59;;;;;;;18.57;7.83;;;;;;;-1.42;74.12;101229.07;1928054;73;21098;-64
2022/03/11 05:20:28;;;;;;;19.90;9.05;;;;;;;-1.42;74.09;101232.95;1925731;74;21158;-58
2022/03/11 05:28:40;;;;;;;12.43;6.35;;;;;;;-1.47;74.13;101231.98;1784667;79;21104;-58
2022/03/11 05:31:09;;;;;;;19.52;8.33;;;;;;;-1.44;74.04;101236.33;1784880;80;21155;-58
2022/03/11 05:33:38;;;;;;;12.47;5.90;;;;;;;-1.46;73.82;101238.02;1784818;80;21142;-58
2022/03/11 05:36:08;;;;;;;23.05;9.38;;;;;;;-1.44;73.73;101239.80;1784812;80;21052;-58
2022/03/11 05:38:36;;;;;;;18.90;8.45;;;;;;;-1.41;73.65;101244.14;1784741;80;21146;-61
2022/03/11 05:41:05;;;;;;;22.50;8.85;;;;;;;-1.40;73.60;101243.31;1784948;79;21130;-59
2022/03/11 05:43:33;;;;;;;17.45;7.87;;;;;;;-1.43;73.53;101238.94;1785076;80;21075;-59
2022/03/11 05:46:02;;;;;;;18.57;9.00;;;;;;;-1.42;73.49;101242.38;1785044;79;21628;-60
2022/03/11 05:48:32;;;;;;;8.80;4.75;;;;;;;-1.40;73.47;101244.60;1785010;80;21091;-61
2022/03/11 05:51:01;;;;;;;15.65;6.70;;;;;;;-1.44;73.54;101245.36;1784912;80;21497;-61
2022/03/11 05:53:29;;;;;;;15.40;8.03;;;;;;;-1.50;73.49;101233.64;1785000;80;21087;-59
2022/03/11 05:55:58;;;;;;;19.90;8.98;;;;;;;-1.52;73.50;101241.78;1784994;80;21636;-60
2022/03/11 05:58:27;;;;;;;19.85;10.00;;;;;;;-1.52;73.55;101237.91;1784781;80;21068;-60
2022/03/11 06:00:55;;;;;;;20.17;9.40;;;;;;;-1.54;73.48;101234.44;1784887;80;21072;-60
2022/03/11 06:03:24;;;;;;;17.12;8.03;;;;;;;-1.59;73.38;101231.31;1784787;80;21144;-62
2022/03/11 06:05:52;;;;;;;11.78;5.72;;;;;;;-1.57;73.30;101223.20;1784899;80;21121;-61
2022/03/11 06:08:23;;;;;;;21.70;9.75;;;;;;;-1.51;73.23;101220.27;1785008;80;21083;-61
2022/03/11 06:10:52;;;;;;;19.27;9.50;;;;;;;-1.51;73.14;101225.03;1785046;80;21133;-61
2022/03/11 06:13:21;;;;;;;19.95;9.33;;;;;;;-1.53;73.12;101219.37;1785081;80;21153;-61
2022/03/11 06:15:49;;;;;;;27.37;13.00;;;;;;;-1.53;73.16;101216.39;1785119;80;21153;-61
2022/03/11 06:18:18;;;;;;;17.77;7.65;;;;;;;-1.53;73.13;101208.14;1784906;79;21152;-61
2022/03/11 06:20:47;;;;;;;17.67;7.78;;;;;;;-1.56;73.02;101208.14;1784919;80;21076;-62
2022/03/11 06:23:15;;;;;;;17.82;8.43;;;;;;;-1.42;73.04;101214.86;1785019;80;21178;-62
2022/03/11 06:25:44;;;;;;;19.95;9.90;;;;;;;-1.37;72.95;101212.34;1785022;80;21049;-61
2022/03/11 06:28:13;;;;;;;23.92;10.08;;;;;;;-1.37;72.88;101217.08;1781285;78;21075;-61
2022/03/11 06:30:45;;;;;;;15.88;8.15;;;;;;;-1.35;72.92;101213.23;1779231;81;21075;-60
2022/03/11 06:33:12;;;;;;;18.90;9.05;;;;;;;-1.33;72.86;101204.23;1779331;81;21071;-61
2022/03/11 06:35:41;;;;;;;24.92;10.32;;;;;;;-1.35;72.81;101200.32;1779340;81;21032;-61
2022/03/11 06:38:09;;;;;;;21.55;10.10;;;;;;;-1.38;72.98;101198.56;1779195;81;21060;-61
2022/03/11 06:40:38;;;;;;;23.15;9.13;;;;;;;-1.37;72.95;101196.84;1779354;81;21145;-60
2022/03/11 06:43:07;;;;;;;21.07;9.05;;;;;;;-1.33;73.06;101192.59;1779362;79;21071;-62
2022/03/11 06:45:35;;;;;;;20.48;8.88;;;;;;;-1.33;73.06;101192.59;1779233;79;21079;-62
2022/03/11 06:48:06;;;;;;;20.25;10.25;;;;;;;-1.28;72.87;101198.72;1779407;80;21115;-59
2022/03/11 06:50:35;;;;;;;22.75;10.72;;;;;;;-1.30;72.77;101194.81;1779074;81;21108;-60
2022/03/11 06:53:03;;;;;;;21.90;9.38;;;;;;;-1.31;72.87;101196.97;1779078;79;21158;-60
2022/03/11 06:55:32;;;;;;;10.08;5.65;;;;;;;-1.28;73.11;101195.70;1779098;81;21778;-60
2022/03/11 06:58:01;;;;;;;21.70;10.18;;;;;;;-1.25;73.08;101198.78;1779125;81;21057;-61
2022/03/11 07:00:30;;;;;;;19.80;9.33;;;;;;;-1.25;73.02;101196.20;1779085;81;21210;-57
2022/03/11 07:02:58;;;;;;;21.42;10.35;;;;;;;-1.29;73.00;101187.53;1779153;81;21151;-60
2022/03/11 07:05:28;;;;;;;20.70;8.95;;;;;;;-1.32;73.08;101191.34;1779050;81;21105;-60
2022/03/11 07:07:57;;;;;;;18.87;9.28;;;;;;;-1.31;73.21;101186.64;1779174;79;21126;-60
2022/03/11 07:10:26;;;;;;;19.45;9.28;;;;;;;-1.34;73.16;101189.59;1779293;81;21039;-60
2022/03/11 07:12:55;;;;;;;22.60;10.43;;;;;;;-1.34;73.19;101191.74;1779321;81;21064;-59
2022/03/11 07:15:23;;;;;;;14.93;7.47;;;;;;;-1.29;73.19;101188.81;1779313;81;21168;-60
2022/03/11 07:17:52;;;;;;;22.45;10.95;;;;;;;-1.20;73.09;101182.51;1778947;80;21057;-60
2022/03/11 07:20:21;;;;;;;26.20;10.50;;;;;;;-1.14;72.87;101180.45;1779030;81;21061;-59
2022/03/11 07:22:49;;;;;;;18.75;8.28;;;;;;;-1.09;72.81;101177.92;1779061;81;21243;-59
2022/03/11 07:25:19;;;;;;;20.37;9.35;;;;;;;-1.09;72.66;101180.50;1778984;81;21116;-60
2022/03/11 07:27:49;;;;;;;19.05;9.28;;;;;;;-1.13;72.86;101178.72;1779833;79;21491;-60
2022/03/11 07:30:17;;;;;;;19.55;9.93;;;;;;;-1.14;73.15;101175.67;1787687;80;21084;-60
2022/03/11 07:32:46;;;;;;;17.27;9.70;;;;;;;-1.12;73.04;101180.48;1787879;80;21076;-60
2022/03/11 07:35:15;;;;;;;19.52;8.95;;;;;;;-1.11;73.03;101174.44;1787976;80;21069;-60
2022/03/11 07:37:44;;;;;;;19.27;9.78;;;;;;;-1.10;72.96;101184.81;1787798;80;21100;-59
2022/03/11 07:40:13;;;;;;;23.45;10.15;;;;;;;-1.05;72.92;101176.71;1787752;80;21060;-58
2022/03/11 07:42:44;;;;;;;23.55;9.65;;;;;;;-1.02;73.00;101176.73;1787866;80;21072;-58
2022/03/11 07:45:15;;;;;;;20.00;8.98;;;;;;;-1.07;73.26;101173.64;1787895;79;21121;-60
2022/03/11 07:47:44;;;;;;;12.73;7.03;;;;;;;-1.01;73.22;101177.62;1787935;80;21076;-60
2022/03/11 07:50:14;;;;;;;16.17;8.38;;;;;;;-0.98;73.16;101165.63;1787724;79;21517;-61
2022/03/11 07:52:43;;;;;;;21.25;9.95;;;;;;;-1.02;73.30;101166.40;1787865;80;21507;-60
2022/03/11 07:55:12;;;;;;;18.27;8.95;;;;;;;-1.05;73.62;101165.08;1787847;80;21167;-61
2022/03/11 07:57:41;;;;;;;18.48;10.25;;;;;;;-1.05;73.64;101158.63;1787785;80;21094;-61
2022/03/11 08:00:10;;;;;;;24.30;10.85;;;;;;;-1.01;73.69;101155.23;1788027;80;21100;-60
2022/03/11 08:02:42;;;;;;;23.42;10.08;;;;;;;-0.92;73.55;101157.09;1787732;80;21522;-62
2022/03/11 08:05:14;;;;;;;22.93;10.55;;;;;;;-0.94;73.45;101157.89;1787723;80;21486;-60
2022/03/11 08:07:48;;;;;;;19.45;8.43;;;;;;;-0.98;73.66;101154.39;1788028;79;21075;-60
2022/03/11 08:10:19;;;;;;;21.52;9.53;;;;;;;-1.02;73.81;101158.64;1787896;80;21502;-60
2022/03/11 08:12:48;;;;;;;23.80;11.03;;;;;;;-0.98;73.67;101156.98;1787096;80;21031;-60
2022/03/11 08:15:18;;;;;;;21.33;9.53;;;;;;;-0.94;73.51;101153.61;1787789;80;21510;-63
2022/03/11 08:17:46;;;;;;;18.40;8.65;;;;;;;-0.95;73.51;101154.88;1787877;80;21600;-65
2022/03/11 08:20:15;;;;;;;18.80;9.50;;;;;;;-0.97;73.71;101154.42;1787730;80;21076;-59
2022/03/11 08:22:45;;;;;;;26.05;11.68;;;;;;;-0.97;73.77;101153.56;1786452;80;21094;-59
2022/03/11 08:25:14;;;;;;;19.67;10.32;;;;;;;-0.94;73.87;101151.03;1786917;80;21526;-64
2022/03/11 08:27:44;;;;;;;18.75;8.83;;;;;;;-0.95;73.96;101146.69;1806273;79;21060;-61
2022/03/11 08:30:14;;;;;;;26.35;11.48;;;;;;;-0.92;74.08;101140.69;1755253;80;21599;-61
2022/03/11 08:32:42;;;;;;;19.92;9.43;;;;;;;-0.90;74.15;101142.47;1754674;82;21537;-61
2022/03/11 08:35:11;;;;;;;19.20;9.10;;;;;;;-0.91;74.15;101142.44;1760910;79;21167;-60
2022/03/11 08:37:40;;;;;;;20.62;10.15;;;;;;;-0.95;74.32;101142.81;1786646;79;21136;-61
2022/03/11 08:40:14;;;;;;;21.17;10.43;;;;;;;-0.91;74.42;101147.17;1784822;80;21060;-60
2022/03/11 08:42:44;;;;;;;19.17;8.78;;;;;;;-0.90;74.28;101143.76;1784441;80;21752;-62
2022/03/11 08:45:13;;;;;;;23.45;11.90;;;;;;;-0.92;74.28;101145.86;1784654;79;21093;-64
2022/03/11 08:47:41;;;;;;;18.70;8.55;;;;;;;-0.91;74.38;101145.02;1811584;79;21592;-63
2022/03/11 08:50:10;;;;;;;24.75;11.15;;;;;;;-0.92;74.17;101141.98;1814571;79;21167;-63
2022/03/11 08:52:40;;;;;;;17.27;8.58;;;;;;;-0.89;74.05;101144.19;1812299;79;21171;-65
2022/03/11 08:55:09;;;;;;;24.90;11.20;;;;;;;-0.84;73.89;101149.01;1782715;80;21073;-62
2022/03/11 08:57:39;;;;;;;21.57;11.08;;;;;;;-0.88;73.84;101143.36;1784144;80;21175;-62
2022/03/11 09:00:14;;;;;;;23.75;11.10;;;;;;;-0.89;73.81;101144.19;1783500;80;21129;-63
2022/03/11 09:02:44;;;;;;;35.45;15.03;;;;;;;-0.91;73.88;101147.61;1786356;79;21124;-63
2022/03/11 09:05:15;;;;;;;26.82;11.88;;;;;;;-0.92;73.88;101145.45;1787531;79;21131;-64
2022/03/11 09:07:44;;;;;;;27.17;11.88;;;;;;;-0.88;73.84;101144.64;1781301;80;21131;-64
2022/03/11 09:10:13;;;;;;;20.60;9.60;;;;;;;-0.88;73.78;101148.95;1781123;80;21079;-60
2022/03/11 09:12:42;;;;;;;30.80;13.45;;;;;;;-0.87;73.88;101149.39;1781197;80;21459;-59
2022/03/11 09:15:11;;;;;;;22.98;10.50;;;;;;;-0.87;73.84;101146.80;1781512;80;21096;-60
2022/03/11 09:17:40;;;;;;;30.60;12.55;;;;;;;-0.88;73.90;101145.94;1784312;80;21187;-61
2022/03/11 09:20:09;;;;;;;27.40;11.48;;;;;;;-0.83;73.77;101145.98;1782981;79;21154;-63
2022/03/11 09:22:39;;;;;;;28.35;11.65;;;;;;;-0.86;73.88;101144.24;1783151;80;21115;-62
2022/03/11 09:25:09;;;;;;;24.82;11.28;;;;;;;-0.81;73.75;101144.32;1784333;80;21567;-60
2022/03/11 09:27:39;;;;;;;23.83;10.40;;;;;;;-0.89;73.99;101143.33;1784584;80;21096;-60
2022/03/11 09:30:09;;;;;;;21.57;10.90;;;;;;;-0.80;74.02;101141.73;1781896;80;21219;-60
2022/03/11 09:32:37;;;;;;;26.55;12.03;;;;;;;-0.75;73.81;101140.95;1778885;81;21174;-60
2022/03/11 09:35:08;;;;;;;27.25;12.73;;;;;;;-0.75;73.63;101140.95;1778996;80;21582;-59
2022/03/11 09:37:38;;;;;;;27.65;13.22;;;;;;;-0.71;73.55;101136.26;1779068;81;21076;-60
2022/03/11 09:40:10;;;;;;;27.80;12.80;;;;;;;-0.73;73.42;101137.95;1779007;81;21076;-59
2022/03/11 09:42:38;;;;;;;30.05;13.03;;;;;;;-0.75;73.21;101131.91;1778989;81;21048;-59
2022/03/11 09:45:10;;;;;;;28.80;12.63;;;;;;;-0.81;73.37;101132.25;1778848;79;21195;-59
2022/03/11 09:47:42;;;;;;;30.15;12.88;;;;;;;-0.83;73.42;101126.20;1779079;81;21068;-60
2022/03/11 09:50:11;;;;;;;24.43;11.48;;;;;;;-0.82;73.55;101124.03;1778947;80;21563;-59
2022/03/11 09:52:42;;;;;;;26.07;10.38;;;;;;;-0.79;73.74;101125.38;1779006;81;21135;-59
2022/03/11 09:55:11;;;;;;;27.62;10.68;;;;;;;-0.73;73.91;101127.18;1779071;81;21166;-59
2022/03/11 09:57:40;;;;;;;28.15;12.30;;;;;;;-0.63;73.77;101122.98;1778870;81;21944;-60
2022/03/11 10:00:10;;;;;;;29.95;11.83;;;;;;;-0.62;73.76;101122.16;1779000;81;21536;-59
2022/03/11 10:02:49;;;;;;;27.42;12.15;;;;;;;-0.57;73.77;101126.97;1779088;81;21543;-60
2022/03/11 10:05:19;;;;;;;26.37;11.95;;;;;;;-0.58;73.85;101125.22;1780522;79;21242;-60
2022/03/11 10:08:03;;;;;;;21.00;9.58;;;;;;;-0.58;74.14;101121.34;1806434;79;21033;-62
2022/03/11 10:10:32;;;;;;;27.35;11.83;;;;;;;-0.50;74.33;101127.50;1812172;79;21064;-61
2022/03/11 10:13:00;;;;;;;28.98;13.03;;;;;;;-0.44;74.50;101126.27;1808850;79;21082;-63
2022/03/11 10:15:30;;;;;;;29.70;12.13;;;;;;;-0.40;74.40;101129.33;1808590;79;21087;-62
2022/03/11 10:18:02;;;;;;;24.80;9.73;;;;;;;-0.37;74.55;101127.63;1808407;78;21515;-62
2022/03/11 10:20:31;;;;;;;24.90;11.48;;;;;;;-0.40;74.52;101128.47;1808156;79;21143;-64
2022/03/11 10:23:00;;;;;;;26.82;12.07;;;;;;;-0.37;74.82;101127.19;1808352;79;21117;-61
2022/03/11 10:25:29;;;;;;;29.07;13.38;;;;;;;-0.37;74.86;101125.89;1808296;79;21151;-63
2022/03/11 10:28:03;;;;;;;33.08;13.22;;;;;;;-0.36;74.96;101125.50;1766998;79;21468;-62
2022/03/11 10:30:34;;;;;;;26.40;11.43;;;;;;;-0.31;74.95;101122.11;1750731;82;21194;-62
2022/03/11 10:33:06;;;;;;;32.48;12.37;;;;;;;-0.25;74.98;101113.11;1750921;82;21522;-63
2022/03/11 10:35:42;;;;;;;25.23;11.12;;;;;;;-0.20;74.98;101116.62;1750966;82;21515;-62
2022/03/11 10:38:14;;;;;;;28.60;12.88;;;;;;;-0.20;74.95;101113.18;1750816;82;21227;-62
2022/03/11 10:40:57;;;;;;;28.95;11.35;;;;;;;-0.17;74.99;101105.42;1750782;82;21173;-62
2022/03/11 10:43:29;;;;;;;30.37;13.13;;;;;;;-0.12;75.02;101099.88;1750677;82;21112;-62
2022/03/11 10:46:14;;;;;;;30.68;12.60;;;;;;;-0.09;75.00;101094.74;1750804;82;21056;-62
2022/03/11 10:48:47;;;;;;;25.62;11.10;;;;;;;-0.04;74.98;101089.59;1749695;82;21061;-62
2022/03/11 10:51:21;;;;;;;29.45;11.57;;;;;;;-0.02;74.79;101090.08;1750843;82;21045;-62
2022/03/11 10:53:51;;;;;;;15.45;7.50;;;;;;;-0.06;74.59;101090.87;1750398;82;21619;-63
2022/03/11 10:56:29;;;;;;;23.70;10.93;;;;;;;-0.09;74.54;101099.92;1750957;82;21151;-62
2022/03/11 10:58:58;;;;;;;24.57;11.50;;;;;;;-0.07;74.53;101096.92;1750871;82;21511;-63
2022/03/11 11:01:42;;;;;;;10.85;4.78;;;;;;;-0.06;74.47;101100.37;1796954;79;21131;-63
2022/03/11 11:04:13;;;;;;;24.32;11.35;;;;;;;-0.06;74.43;101092.16;1808282;79;21062;-64
2022/03/11 11:06:42;;;;;;;21.15;9.88;;;;;;;-0.09;74.46;101095.14;1808227;79;21065;-63
2022/03/11 11:09:13;;;;;;;20.60;8.65;;;;;;;-0.09;74.59;101096.44;1808221;79;21215;-63
2022/03/11 11:11:45;;;;;;;21.65;9.58;;;;;;;-0.06;74.52;101092.16;1808177;79;21132;-63
2022/03/11 11:14:14;;;;;;;19.70;10.03;;;;;;;-0.04;74.45;101098.25;1808235;79;21507;-63
2022/03/11 11:16:45;;;;;;;18.73;8.33;;;;;;;-0.04;74.49;101104.73;1808126;79;21138;-63
2022/03/11 11:19:17;;;;;;;18.70;8.23;;;;;;;-0.02;74.53;101108.20;1808301;79;21053;-62
2022/03/11 11:21:49;;;;;;;25.92;12.73;;;;;;;-0.01;74.53;101102.15;1808283;79;21105;-63
2022/03/11 11:24:25;;;;;;;8.35;5.85;;;;;;;0.00;74.55;101112.10;1808328;79;21139;-63
2022/03/11 11:26:56;;;;;;;21.05;8.33;;;;;;;0.03;74.44;101103.48;1808354;79;21037;-63
2022/03/11 11:29:29;;;;;;;21.25;9.95;;;;;;;0.05;74.34;101105.66;1808261;79;21066;-62